createdAt,value
2018-12-19T00:00:40.056Z,1.36
2018-12-19T00:03:09.866Z,1.36
2018-12-19T00:05:39.440Z,1.34
2018-12-19T00:08:09.902Z,1.36
2018-12-19T00:10:38.627Z,1.37
2018-12-19T00:13:10.007Z,1.36
2018-12-19T00:15:38.870Z,1.35
2018-12-19T00:18:07.736Z,1.35
2018-12-19T00:20:36.877Z,1.38
2018-12-19T00:23:06.037Z,1.38
2018-12-19T00:25:35.568Z,1.43
2018-12-19T00:28:04.403Z,1.45
2018-12-19T00:30:33.380Z,1.45
2018-12-19T00:33:03.054Z,1.43
2018-12-19T00:35:31.895Z,1.43
2018-12-19T00:38:01.516Z,1.45
2018-12-19T00:40:30.311Z,1.45
2018-12-19T00:42:59.065Z,1.47
2018-12-19T00:45:28.584Z,1.48
2018-12-19T00:47:57.532Z,1.48
2018-12-19T00:50:27.148Z,1.47
2018-12-19T00:52:56.282Z,1.51
2018-12-19T00:55:25.725Z,1.52
2018-12-19T00:57:55.059Z,1.53
2018-12-19T01:00:23.795Z,1.55
2018-12-19T01:02:53.513Z,1.57
2018-12-19T01:05:23.023Z,1.56
2018-12-19T01:07:52.389Z,1.59
2018-12-19T01:10:21.250Z,1.60
2018-12-19T01:12:50.142Z,1.63
2018-12-19T01:15:18.898Z,1.63
2018-12-19T01:17:47.998Z,1.64
2018-12-19T01:20:17.197Z,1.66
2018-12-19T01:22:46.070Z,1.68
2018-12-19T01:25:14.918Z,1.68
2018-12-19T01:27:43.625Z,1.65
2018-12-19T01:30:12.489Z,1.68
2018-12-19T01:32:41.417Z,1.66
2018-12-19T01:35:10.302Z,1.67
2018-12-19T01:37:40.004Z,1.70
2018-12-19T01:40:09.213Z,1.73
2018-12-19T01:42:38.848Z,1.79
2018-12-19T01:45:08.325Z,1.78
2018-12-19T01:47:37.019Z,1.77
2018-12-19T01:50:06.996Z,1.76
2018-12-19T01:52:36.480Z,1.78
2018-12-19T01:55:06.348Z,1.79
2018-12-19T01:57:35.578Z,1.78
2018-12-19T02:00:05.215Z,1.79
2018-12-19T02:02:34.548Z,1.83
2018-12-19T02:05:06.667Z,1.87
2018-12-19T02:07:35.460Z,1.90
2018-12-19T02:10:05.232Z,1.92
2018-12-19T02:12:33.945Z,1.91
2018-12-19T02:15:03.182Z,1.93
2018-12-19T02:17:31.920Z,1.97
2018-12-19T02:20:02.263Z,2.01
2018-12-19T02:22:31.072Z,2.01
2018-12-19T02:24:59.896Z,2.06
2018-12-19T02:27:28.612Z,2.07
2018-12-19T02:29:58.344Z,2.09
2018-12-19T02:32:27.628Z,2.07
2018-12-19T02:34:56.349Z,2.05
2018-12-19T02:37:25.573Z,2.10
2018-12-19T02:39:55.096Z,2.10
2018-12-19T02:42:23.852Z,2.11
2018-12-19T02:44:53.010Z,2.12
2018-12-19T02:47:21.799Z,2.10
2018-12-19T02:49:50.691Z,2.09
2018-12-19T02:52:20.265Z,2.07
2018-12-19T02:54:49.142Z,2.05
2018-12-19T02:57:18.907Z,2.06
2018-12-19T02:59:48.789Z,2.03
2018-12-19T03:02:18.363Z,2.03
2018-12-19T03:04:47.845Z,2.06
2018-12-19T03:07:16.682Z,2.09
2018-12-19T03:09:46.055Z,2.06
2018-12-19T03:12:14.890Z,2.11
2018-12-19T03:14:43.611Z,2.13
2018-12-19T03:17:13.047Z,2.15
2018-12-19T03:19:41.793Z,2.14
2018-12-19T03:22:10.647Z,2.14
2018-12-19T03:24:39.369Z,2.12
2018-12-19T03:27:08.194Z,2.12
2018-12-19T03:29:37.402Z,2.13
2018-12-19T03:32:07.124Z,2.12
2018-12-19T03:34:36.140Z,2.08
2018-12-19T03:37:05.390Z,2.11
2018-12-19T03:39:34.819Z,2.08
2018-12-19T03:42:03.655Z,2.07
2018-12-19T03:44:32.407Z,2.09
2018-12-19T03:47:01.289Z,2.09
2018-12-19T03:49:30.105Z,2.09
2018-12-19T03:51:59.541Z,2.10
2018-12-19T03:54:29.264Z,2.07
2018-12-19T03:56:58.764Z,2.05
2018-12-19T03:59:28.061Z,2.05
2018-12-19T04:01:57.358Z,2.04
2018-12-19T04:04:27.452Z,2.01
2018-12-19T04:06:56.168Z,2.00
2018-12-19T04:09:25.664Z,1.99
2018-12-19T04:11:54.393Z,1.95
2018-12-19T04:14:23.077Z,1.94
2018-12-19T04:16:51.862Z,1.87
2018-12-19T04:19:20.648Z,1.93
2018-12-19T04:21:49.597Z,1.96
2018-12-19T04:24:18.529Z,1.97
2018-12-19T04:26:47.656Z,1.99
2018-12-19T04:29:17.085Z,1.99
2018-12-19T04:31:46.537Z,1.98
2018-12-19T04:34:16.395Z,1.97
2018-12-19T04:36:45.908Z,1.94
2018-12-19T04:39:15.358Z,1.93
2018-12-19T04:41:44.051Z,1.91
2018-12-19T04:44:12.897Z,1.93
2018-12-19T04:46:41.769Z,1.92
2018-12-19T04:49:10.568Z,1.93
2018-12-19T04:51:39.999Z,1.95
2018-12-19T04:54:08.787Z,1.94
2018-12-19T04:56:38.176Z,1.92
2018-12-19T04:59:10.674Z,1.91
2018-12-19T05:01:40.177Z,1.87
2018-12-19T05:04:12.717Z,1.85
2018-12-19T05:06:44.528Z,1.84
2018-12-19T05:09:13.853Z,1.86
2018-12-19T05:11:42.597Z,1.90
2018-12-19T05:14:11.365Z,1.93
2018-12-19T05:16:40.177Z,1.86
2018-12-19T05:19:09.596Z,1.91
2018-12-19T05:21:38.385Z,1.89
2018-12-19T05:24:07.122Z,1.87
2018-12-19T05:26:36.074Z,1.87
2018-12-19T05:29:05.667Z,1.90
2018-12-19T05:31:34.421Z,1.86
2018-12-19T05:34:04.073Z,1.90
2018-12-19T05:36:32.856Z,1.94
2018-12-19T05:39:02.269Z,1.94
2018-12-19T05:41:30.986Z,1.98
2018-12-19T05:43:59.692Z,2.01
2018-12-19T05:46:28.426Z,2.01
2018-12-19T05:48:57.206Z,1.99
2018-12-19T05:51:26.891Z,1.99
2018-12-19T05:53:55.682Z,1.98
2018-12-19T05:56:25.101Z,1.97
2018-12-19T05:58:54.422Z,1.95
2018-12-19T06:01:23.196Z,1.98
2018-12-19T06:03:52.520Z,2.04
2018-12-19T06:06:21.607Z,2.04
2018-12-19T06:08:51.037Z,2.06
2018-12-19T06:11:19.896Z,2.09
2018-12-19T06:13:48.862Z,2.12
2018-12-19T06:16:17.928Z,2.11
2018-12-19T06:18:46.853Z,2.06
2018-12-19T06:21:16.196Z,2.08
2018-12-19T06:23:44.924Z,2.12
2018-12-19T06:26:13.662Z,2.14
2018-12-19T06:28:43.396Z,2.14
2018-12-19T06:31:13.581Z,2.17
2018-12-19T06:33:43.233Z,2.15
2018-12-19T06:36:12.025Z,2.20
2018-12-19T06:38:41.489Z,2.21
2018-12-19T06:41:10.424Z,2.25
2018-12-19T06:43:39.927Z,2.19
2018-12-19T06:46:08.718Z,2.23
2018-12-19T06:48:37.507Z,2.26
2018-12-19T06:51:07.218Z,2.27
2018-12-19T06:53:36.785Z,2.27
2018-12-19T06:56:06.247Z,2.24
2018-12-19T06:58:35.198Z,2.23
2018-12-19T07:01:05.904Z,2.20
2018-12-19T07:03:35.861Z,2.14
2018-12-19T07:06:05.929Z,2.17
2018-12-19T07:08:35.747Z,2.14
2018-12-19T07:11:05.337Z,2.14
2018-12-19T07:13:34.189Z,2.13
2018-12-19T07:16:02.881Z,2.18
2018-12-19T07:18:32.833Z,2.20
2018-12-19T07:21:01.743Z,2.19
2018-12-19T07:23:30.502Z,2.16
2018-12-19T07:25:59.919Z,2.17
2018-12-19T07:28:29.453Z,2.08
2018-12-19T07:30:58.198Z,2.10
2018-12-19T07:33:27.520Z,2.11
2018-12-19T07:35:56.253Z,2.11
2018-12-19T07:38:25.726Z,2.13
2018-12-19T07:40:54.496Z,2.10
2018-12-19T07:43:23.285Z,2.11
2018-12-19T07:45:52.075Z,2.12
2018-12-19T07:48:21.269Z,2.11
2018-12-19T07:50:50.224Z,2.15
2018-12-19T07:53:19.752Z,2.21
2018-12-19T07:55:49.725Z,2.21
2018-12-19T07:58:19.265Z,2.23
2018-12-19T08:00:48.837Z,2.24
2018-12-19T08:03:18.654Z,2.26
2018-12-19T08:05:47.965Z,2.27
2018-12-19T08:08:17.550Z,2.32
2018-12-19T08:10:52.022Z,2.31
2018-12-19T08:13:17.475Z,2.34
2018-12-19T08:15:46.324Z,2.32
2018-12-19T08:18:15.310Z,2.34
2018-12-19T08:20:44.185Z,2.35
2018-12-19T08:23:13.210Z,2.38
2018-12-19T08:25:42.541Z,2.36
2018-12-19T08:28:12.146Z,2.35
2018-12-19T08:30:40.938Z,2.40
2018-12-19T08:33:09.673Z,2.46
2018-12-19T08:35:38.462Z,2.46
2018-12-19T08:38:08.693Z,2.47
2018-12-19T08:40:37.485Z,2.47
2018-12-19T08:43:06.334Z,2.46
2018-12-19T08:45:35.636Z,2.48
2018-12-19T08:48:04.537Z,2.47
2018-12-19T08:50:33.348Z,2.46
2018-12-19T08:53:02.490Z,2.50
2018-12-19T08:55:31.212Z,2.45
2018-12-19T08:58:00.502Z,2.55
2018-12-19T09:00:29.761Z,2.52
2018-12-19T09:02:59.268Z,2.53
2018-12-19T09:05:28.565Z,2.58
2018-12-19T09:07:57.941Z,2.62
2018-12-19T09:10:26.673Z,2.67
2018-12-19T09:12:55.424Z,2.70
2018-12-19T09:15:29.322Z,2.66
2018-12-19T09:17:58.576Z,2.72
2018-12-19T09:20:27.513Z,2.74
2018-12-19T09:22:56.669Z,2.76
2018-12-19T09:25:25.479Z,2.78
2018-12-19T09:27:55.136Z,2.81
2018-12-19T09:30:24.069Z,2.74
2018-12-19T09:32:52.997Z,2.86
2018-12-19T09:35:21.872Z,2.89
2018-12-19T09:37:50.735Z,2.93
2018-12-19T09:40:20.035Z,2.96
2018-12-19T09:42:49.788Z,2.96
2018-12-19T09:45:18.547Z,2.95
2018-12-19T09:47:47.368Z,2.97
2018-12-19T09:50:16.277Z,2.99
2018-12-19T09:52:45.654Z,2.98
2018-12-19T09:55:14.406Z,2.98
2018-12-19T09:57:43.777Z,2.95
2018-12-19T10:00:18.627Z,2.93
2018-12-19T10:02:49.391Z,2.96
2018-12-19T10:05:19.181Z,2.95
2018-12-19T10:07:48.835Z,2.98
2018-12-19T10:10:18.377Z,2.95
2018-12-19T10:12:47.307Z,2.95
2018-12-19T10:15:16.296Z,2.93
2018-12-19T10:17:45.222Z,2.91
2018-12-19T10:20:14.823Z,2.92
2018-12-19T10:22:43.615Z,2.94
2018-12-19T10:25:13.791Z,2.94
2018-12-19T10:27:43.522Z,2.90
2018-12-19T10:30:14.411Z,2.80
2018-12-19T10:32:44.121Z,2.83
2018-12-19T10:35:12.992Z,2.85
2018-12-19T10:37:41.766Z,2.79
2018-12-19T10:40:12.433Z,2.84
2018-12-19T10:42:41.301Z,2.89
2018-12-19T10:45:11.094Z,2.86
2018-12-19T10:47:39.880Z,2.80
2018-12-19T10:50:11.385Z,2.76
2018-12-19T10:52:42.999Z,2.76
2018-12-19T10:57:44.881Z,2.75
2018-12-19T11:00:20.025Z,2.77
2018-12-19T11:02:49.493Z,2.75
2018-12-19T11:05:18.592Z,2.71
2018-12-19T11:07:50.065Z,2.75
2018-12-19T11:10:18.856Z,2.74
2018-12-19T11:12:47.733Z,2.72
2018-12-19T11:15:16.520Z,2.71
2018-12-19T11:17:46.424Z,2.70
2018-12-19T11:20:15.146Z,2.72
2018-12-19T11:22:43.893Z,2.74
2018-12-19T11:25:12.684Z,2.81
2018-12-19T11:27:41.378Z,2.85
2018-12-19T11:30:10.955Z,2.86
2018-12-19T11:32:39.675Z,2.90
2018-12-19T11:35:08.377Z,2.90
2018-12-19T11:37:37.224Z,2.89
2018-12-19T11:40:08.527Z,2.89
2018-12-19T11:42:37.349Z,2.86
2018-12-19T11:45:06.536Z,2.88
2018-12-19T11:47:35.304Z,2.89
2018-12-19T11:50:04.052Z,2.89
2018-12-19T11:52:33.377Z,2.91
2018-12-19T11:55:02.093Z,2.89
2018-12-19T11:57:31.576Z,2.89
2018-12-19T12:00:01.161Z,2.92
2018-12-19T12:02:30.725Z,2.98
2018-12-19T12:04:59.840Z,2.98
2018-12-19T12:07:28.783Z,3.00
2018-12-19T12:09:58.325Z,2.94
2018-12-19T12:12:27.073Z,2.97
2018-12-19T12:14:56.234Z,2.98
2018-12-19T12:17:25.319Z,2.95
2018-12-19T12:19:54.052Z,3.02
2018-12-19T12:22:22.785Z,3.04
2018-12-19T12:24:52.116Z,3.03
2018-12-19T12:27:20.885Z,3.03
2018-12-19T12:29:50.265Z,3.08
2018-12-19T12:32:19.091Z,3.07
2018-12-19T12:34:48.048Z,3.06
2018-12-19T12:37:16.864Z,3.05
2018-12-19T12:39:46.356Z,3.04
2018-12-19T12:42:15.196Z,3.05
2018-12-19T12:44:44.163Z,3.01
2018-12-19T12:47:13.547Z,2.96
2018-12-19T12:49:42.281Z,3.01
2018-12-19T12:52:11.322Z,3.00
2018-12-19T12:54:39.997Z,2.98
2018-12-19T12:57:09.689Z,2.98
2018-12-19T12:59:39.444Z,2.98
2018-12-19T13:02:08.827Z,2.98
2018-12-19T13:04:37.939Z,2.99
2018-12-19T13:07:06.707Z,3.01
2018-12-19T13:09:36.058Z,3.03
2018-12-19T13:12:04.800Z,3.01
2018-12-19T13:14:34.606Z,3.01
2018-12-19T13:17:03.331Z,2.95
2018-12-19T13:19:32.005Z,3.00
2018-12-19T13:22:01.857Z,2.98
2018-12-19T13:24:30.669Z,2.98
2018-12-19T13:26:59.396Z,2.95
2018-12-19T13:29:29.110Z,2.94
2018-12-19T13:31:58.199Z,2.94
2018-12-19T13:34:26.953Z,2.91
2018-12-19T13:36:55.939Z,2.91
2018-12-19T13:39:25.331Z,2.91
2018-12-19T13:41:54.097Z,2.87
2018-12-19T13:44:22.833Z,2.78
2018-12-19T13:46:51.590Z,2.81
2018-12-19T13:49:20.369Z,2.78
2018-12-19T13:51:50.195Z,2.79
2018-12-19T13:54:18.893Z,2.79
2018-12-19T13:56:48.442Z,2.73
2018-12-19T13:59:18.412Z,2.76
2018-12-19T14:01:47.917Z,2.74
2018-12-19T14:04:17.648Z,2.73
2018-12-19T14:06:46.351Z,2.74
2018-12-19T14:09:15.680Z,2.73
2018-12-19T14:11:44.849Z,2.74
2018-12-19T14:14:13.536Z,2.68
2018-12-19T14:16:42.252Z,2.69
2018-12-19T14:19:11.049Z,2.69
2018-12-19T14:21:40.442Z,2.71
2018-12-19T14:24:09.791Z,2.69
2018-12-19T14:26:38.727Z,2.75
2018-12-19T14:29:08.020Z,2.74
2018-12-19T14:31:36.887Z,2.75
2018-12-19T14:34:05.637Z,2.77
2018-12-19T14:36:34.396Z,2.80
2018-12-19T14:41:55.841Z,2.85
2018-12-19T14:44:24.615Z,2.87
2018-12-19T14:46:53.337Z,2.92
2018-12-19T14:49:22.118Z,2.93
2018-12-19T14:51:51.764Z,2.94
2018-12-19T14:54:20.598Z,2.97
2018-12-19T14:56:50.003Z,2.96
2018-12-19T14:59:19.326Z,2.98
2018-12-19T15:01:49.427Z,2.96
2018-12-19T15:04:18.809Z,2.97
2018-12-19T15:06:47.623Z,2.96
2018-12-19T15:09:16.917Z,2.97
2018-12-19T15:11:45.755Z,2.97
2018-12-19T15:14:14.486Z,2.97
2018-12-19T15:16:43.796Z,2.99
2018-12-19T15:19:12.522Z,3.02
2018-12-19T15:21:41.311Z,3.05
2018-12-19T15:24:10.826Z,3.04
2018-12-19T15:26:39.659Z,3.06
2018-12-19T15:29:09.172Z,3.08
2018-12-19T15:31:37.928Z,3.09
2018-12-19T15:34:06.693Z,3.10
2018-12-19T15:36:35.688Z,3.13
2018-12-19T15:39:08.267Z,3.12
2018-12-19T15:41:37.280Z,3.13
2018-12-19T15:44:06.060Z,3.13
2018-12-19T15:46:34.900Z,3.11
2018-12-19T15:49:03.673Z,3.13
2018-12-19T15:51:32.967Z,3.10
2018-12-19T15:54:01.752Z,3.09
2018-12-19T15:56:31.306Z,3.11
2018-12-19T15:59:01.230Z,3.13
2018-12-19T16:01:29.965Z,3.15
2018-12-19T16:03:59.298Z,3.17
2018-12-19T16:06:28.740Z,3.17
2018-12-19T16:08:57.958Z,3.17
2018-12-19T16:11:26.641Z,3.20
2018-12-19T16:13:55.688Z,3.19
2018-12-19T16:16:24.643Z,3.13
2018-12-19T16:18:53.419Z,3.22
2018-12-19T16:21:22.223Z,3.23
2018-12-19T16:23:52.130Z,3.27
2018-12-19T16:26:20.925Z,3.29
2018-12-19T16:28:50.664Z,3.31
2018-12-19T16:31:19.452Z,3.32
2018-12-19T16:33:48.338Z,3.33
2018-12-19T16:36:17.241Z,3.35
2018-12-19T16:38:46.446Z,3.36
2018-12-19T16:41:15.200Z,3.37
2018-12-19T16:43:44.028Z,3.37
2018-12-19T16:46:13.490Z,3.39
2018-12-19T16:48:42.385Z,3.41
2018-12-19T16:51:11.122Z,3.43
2018-12-19T16:53:40.381Z,3.44
2018-12-19T16:56:09.662Z,3.47
2018-12-19T16:58:38.388Z,3.49
2018-12-19T17:01:07.739Z,3.49
2018-12-19T17:03:37.425Z,3.52
2018-12-19T17:06:06.266Z,3.54
2018-12-19T17:08:36.042Z,3.54
2018-12-19T17:11:04.798Z,3.54
2018-12-19T17:13:33.525Z,3.54
2018-12-19T17:16:02.280Z,3.51
2018-12-19T17:18:31.132Z,3.47
2018-12-19T17:21:00.016Z,3.42
2018-12-19T17:23:29.894Z,3.40
2018-12-19T17:25:58.682Z,3.42
2018-12-19T17:28:28.082Z,3.41
2018-12-19T17:30:56.883Z,3.41
2018-12-19T17:33:25.617Z,3.42
2018-12-19T17:35:54.988Z,3.44
2018-12-19T17:38:24.312Z,3.47
2018-12-19T17:40:53.103Z,3.48
2018-12-19T17:43:21.854Z,3.50
2018-12-19T17:45:51.769Z,3.54
2018-12-19T17:48:20.592Z,3.57
2018-12-19T17:50:49.497Z,3.59
2018-12-19T17:53:18.949Z,3.61
2018-12-19T17:58:39.503Z,3.58
2018-12-19T18:01:08.908Z,3.60
2018-12-19T18:03:38.322Z,3.62
2018-12-19T18:06:07.022Z,3.57
2018-12-19T18:08:36.550Z,3.62
2018-12-19T18:11:05.368Z,3.64
2018-12-19T18:13:34.788Z,3.64
2018-12-19T18:16:03.528Z,3.63
2018-12-19T18:18:32.477Z,3.61
2018-12-19T18:21:01.746Z,3.60
2018-12-19T18:23:32.166Z,3.61
2018-12-19T18:26:00.884Z,3.62
2018-12-19T18:28:30.336Z,3.62
2018-12-19T18:30:59.113Z,3.63
2018-12-19T18:33:27.862Z,3.63
2018-12-19T18:38:42.880Z,3.59
2018-12-19T18:41:11.572Z,3.58
2018-12-19T18:43:40.330Z,3.59
2018-12-19T18:46:09.635Z,3.58
2018-12-19T18:48:38.471Z,3.61
2018-12-19T18:51:07.321Z,3.58
2018-12-19T18:53:39.242Z,3.56
2018-12-19T18:56:09.331Z,3.55
2018-12-19T18:58:39.095Z,3.53
2018-12-19T19:01:09.091Z,3.50
2018-12-19T19:06:25.356Z,3.53
2018-12-19T19:08:54.651Z,3.54
2018-12-19T19:11:23.453Z,3.55
2018-12-19T19:13:52.880Z,3.56
2018-12-19T19:16:21.701Z,3.54
2018-12-19T19:18:51.236Z,3.55
2018-12-19T19:21:21.488Z,3.57
2018-12-19T19:23:51.282Z,3.57
2018-12-19T19:26:20.250Z,3.57
2018-12-19T19:28:49.835Z,3.56
2018-12-19T19:31:18.709Z,3.58
2018-12-19T19:33:47.492Z,3.62
2018-12-19T19:36:16.256Z,3.65
2018-12-19T19:38:45.580Z,3.65
2018-12-19T19:41:14.450Z,3.64
2018-12-19T19:43:43.205Z,3.62
2018-12-19T19:46:13.404Z,3.59
2018-12-19T19:48:42.321Z,3.61
2018-12-19T19:51:16.795Z,3.64
2018-12-19T19:53:42.926Z,3.65
2018-12-19T19:56:12.495Z,3.66
2018-12-19T19:58:42.263Z,3.69
2018-12-19T20:01:11.468Z,3.65
2018-12-19T20:03:40.798Z,3.69
2018-12-19T20:06:09.560Z,3.68
2018-12-19T20:08:39.176Z,3.69
2018-12-19T20:11:08.189Z,3.64
2018-12-19T20:13:37.452Z,3.69
2018-12-19T20:16:06.544Z,3.68
2018-12-19T20:18:35.334Z,3.71
2018-12-19T20:21:04.764Z,3.68
2018-12-19T20:23:34.292Z,3.66
2018-12-19T20:26:03.743Z,3.64
2018-12-19T20:28:33.065Z,3.59
2018-12-19T20:31:01.898Z,3.57
2018-12-19T20:33:30.590Z,3.55
2018-12-19T20:35:59.692Z,3.52
2018-12-19T20:38:29.158Z,3.49
2018-12-19T20:40:57.951Z,3.51
2018-12-19T20:43:26.706Z,3.52
2018-12-19T20:45:56.166Z,3.56
2018-12-19T20:48:24.916Z,3.57
2018-12-19T20:50:54.771Z,3.56
2018-12-19T20:53:23.950Z,3.65
2018-12-19T20:55:53.371Z,3.66
2018-12-19T20:58:23.305Z,3.68
2018-12-19T21:00:52.854Z,3.69
2018-12-19T21:03:22.467Z,3.70
2018-12-19T21:05:51.978Z,3.75
2018-12-19T21:08:21.419Z,3.76
2018-12-19T21:10:50.352Z,3.74
2018-12-19T21:13:19.853Z,3.74
2018-12-19T21:15:48.657Z,3.72
2018-12-19T21:18:23.577Z,3.75
2018-12-19T21:20:52.462Z,3.75
2018-12-19T21:23:21.840Z,3.75
2018-12-19T21:25:51.211Z,3.74
2018-12-19T21:28:20.601Z,3.75
2018-12-19T21:30:49.492Z,3.75
2018-12-19T21:33:18.395Z,3.75
2018-12-19T21:35:47.227Z,3.77
2018-12-19T21:38:16.775Z,3.77
2018-12-19T21:40:45.621Z,3.77
2018-12-19T21:43:14.320Z,3.80
2018-12-19T21:45:44.368Z,3.77
2018-12-19T21:48:13.189Z,3.79
2018-12-19T21:50:41.973Z,3.81
2018-12-19T21:53:11.351Z,3.83
2018-12-19T21:55:41.654Z,3.85
2018-12-19T21:58:10.537Z,3.86
2018-12-19T22:00:42.006Z,3.85
2018-12-19T22:03:11.482Z,3.86
2018-12-19T22:05:40.646Z,3.83
2018-12-19T22:08:10.018Z,3.76
2018-12-19T22:10:38.821Z,3.78
2018-12-19T22:13:07.563Z,3.76
2018-12-19T22:15:36.390Z,3.77
2018-12-19T22:18:10.470Z,3.78
2018-12-19T22:20:39.330Z,3.78
2018-12-19T22:23:08.707Z,3.79
2018-12-19T22:25:38.589Z,3.79
2018-12-19T22:28:07.956Z,3.80
2018-12-19T22:30:36.732Z,3.77
2018-12-19T22:33:05.560Z,3.76
2018-12-19T22:35:34.361Z,3.76
2018-12-19T22:38:03.103Z,3.76
2018-12-19T22:40:32.749Z,3.73
2018-12-19T22:43:01.493Z,3.73
2018-12-19T22:45:30.994Z,3.71
2018-12-19T22:47:59.727Z,3.70
2018-12-19T22:50:29.142Z,3.66
2018-12-19T22:52:59.790Z,3.66
2018-12-19T22:55:29.530Z,3.66
2018-12-19T22:57:58.321Z,3.65
2018-12-19T23:00:29.648Z,3.65
2018-12-19T23:03:05.899Z,3.65
2018-12-19T23:05:39.818Z,3.64
2018-12-19T23:08:09.489Z,3.64
2018-12-19T23:10:38.276Z,3.63
2018-12-19T23:13:07.976Z,3.64
2018-12-19T23:15:37.276Z,3.63
2018-12-19T23:18:11.297Z,3.63
2018-12-19T23:20:40.235Z,3.63
2018-12-19T23:23:10.416Z,3.64
2018-12-19T23:25:39.265Z,3.65
2018-12-19T23:28:09.300Z,3.66
2018-12-19T23:30:38.107Z,3.67
2018-12-19T23:33:06.879Z,3.66
2018-12-19T23:35:36.171Z,3.66
2018-12-19T23:38:05.953Z,3.67
2018-12-19T23:40:35.248Z,3.66
2018-12-19T23:43:04.349Z,3.68
2018-12-19T23:45:33.721Z,3.67
2018-12-19T23:48:02.886Z,3.68
2018-12-19T23:50:32.442Z,3.67
2018-12-19T23:53:02.070Z,3.65
2018-12-19T23:55:31.481Z,3.66
2018-12-19T23:58:00.510Z,3.68
